createdAt,value
2022-11-09T00:00:45.950Z,99593.16
2022-11-09T00:03:47.957Z,99597.86
2022-11-09T00:07:09.566Z,99597.19
2022-11-09T00:10:27.355Z,99602.63
2022-11-09T00:13:29.007Z,99604.89
2022-11-09T00:16:30.945Z,99602.65
2022-11-09T00:19:32.989Z,99608.73
2022-11-09T00:22:34.767Z,99606.02
2022-11-09T00:25:36.497Z,99610.45
2022-11-09T00:28:38.196Z,99605.03
2022-11-09T00:31:39.946Z,99611.96
2022-11-09T00:34:41.597Z,99610.73
2022-11-09T00:37:43.270Z,99611.36
2022-11-09T00:40:44.856Z,99603.80
2022-11-09T00:43:47.504Z,99604.37
2022-11-09T00:46:49.433Z,99603.19
2022-11-09T00:49:51.250Z,99604.50
2022-11-09T00:52:53.148Z,99606.58
2022-11-09T00:55:57.804Z,99601.23
2022-11-09T00:58:59.498Z,99603.50
2022-11-09T01:02:01.087Z,99608.77
2022-11-09T01:05:02.934Z,99607.23
2022-11-09T01:08:04.469Z,99607.14
2022-11-09T01:11:08.023Z,99612.36
2022-11-09T01:14:10.880Z,99609.78
2022-11-09T01:17:12.530Z,99611.77
2022-11-09T01:20:15.021Z,99605.73
2022-11-09T01:23:18.441Z,99605.41
2022-11-09T01:26:21.348Z,99602.14
2022-11-09T01:29:23.046Z,99607.31
2022-11-09T01:32:24.620Z,99602.68
2022-11-09T01:35:26.398Z,99601.66
2022-11-09T01:38:27.963Z,99602.35
2022-11-09T01:41:29.701Z,99601.66
2022-11-09T01:44:32.255Z,99601.07
2022-11-09T01:47:34.828Z,99598.05
2022-11-09T01:50:44.663Z,99594.03
2022-11-09T01:53:48.625Z,99591.54
2022-11-09T01:56:54.235Z,99587.13
2022-11-09T02:00:00.558Z,99592.42
2022-11-09T02:03:06.522Z,99587.13
2022-11-09T02:06:10.557Z,99578.78
2022-11-09T02:09:31.832Z,99573.03
2022-11-09T02:12:34.984Z,99577.04
2022-11-09T02:15:41.408Z,99581.05
2022-11-09T02:18:57.720Z,99583.73
2022-11-09T02:21:59.398Z,99583.95
2022-11-09T02:25:01.074Z,99582.70
2022-11-09T02:28:02.990Z,99579.09
2022-11-09T02:31:04.934Z,99580.95
2022-11-09T02:34:13.757Z,99582.11
2022-11-09T02:37:45.654Z,99575.02
2022-11-09T02:40:50.313Z,99578.01
2022-11-09T02:43:52.756Z,99577.02
2022-11-09T02:46:54.378Z,99578.80
2022-11-09T02:49:58.004Z,99576.60
2022-11-09T02:52:59.625Z,99575.89
2022-11-09T02:56:02.331Z,99577.21
2022-11-09T02:59:04.187Z,99579.99
2022-11-09T03:02:05.722Z,99585.00
2022-11-09T03:05:07.949Z,99589.04
2022-11-09T03:08:09.565Z,99586.77
2022-11-09T03:11:11.233Z,99584.00
2022-11-09T03:14:12.854Z,99578.45
2022-11-09T03:17:14.512Z,99579.30
2022-11-09T03:20:16.262Z,99576.10
2022-11-09T03:23:18.163Z,99571.45
2022-11-09T03:26:20.598Z,99576.23
2022-11-09T03:29:22.316Z,99584.94
2022-11-09T03:32:24.479Z,99577.87
2022-11-09T03:35:26.334Z,99580.30
2022-11-09T03:38:27.918Z,99583.42
2022-11-09T03:41:29.613Z,99587.30
2022-11-09T03:44:31.485Z,99588.08
2022-11-09T03:47:33.133Z,99583.77
2022-11-09T03:50:40.482Z,99574.87
2022-11-09T03:53:42.195Z,99569.65
2022-11-09T03:56:43.944Z,99571.98
2022-11-09T03:59:45.502Z,99570.07
2022-11-09T04:02:47.533Z,99569.25
2022-11-09T04:05:49.265Z,99564.31
2022-11-09T04:08:51.811Z,99567.70
2022-11-09T04:11:53.503Z,99561.96
2022-11-09T04:14:55.138Z,99563.64
2022-11-09T04:18:01.775Z,99566.56
2022-11-09T04:21:03.527Z,99565.02
2022-11-09T04:24:05.777Z,99561.84
2022-11-09T04:27:07.471Z,99562.17
2022-11-09T04:30:09.568Z,99567.29
2022-11-09T04:33:11.244Z,99567.96
2022-11-09T04:36:12.878Z,99570.63
2022-11-09T04:39:14.604Z,99566.90
2022-11-09T04:42:16.236Z,99562.79
2022-11-09T04:45:18.163Z,99564.77
2022-11-09T04:48:19.657Z,99565.52
2022-11-09T04:51:21.474Z,99566.01
2022-11-09T04:54:23.236Z,99569.20
2022-11-09T04:57:24.793Z,99568.99
2022-11-09T05:00:27.365Z,99563.48
2022-11-09T05:03:29.045Z,99564.88
2022-11-09T05:06:33.664Z,99564.98
2022-11-09T05:09:35.322Z,99569.41
2022-11-09T05:12:37.046Z,99575.90
2022-11-09T05:15:39.417Z,99569.19
2022-11-09T05:18:41.078Z,99568.94
2022-11-09T05:21:42.814Z,99566.22
2022-11-09T05:24:44.322Z,99564.33
2022-11-09T05:27:45.896Z,99561.11
2022-11-09T05:30:47.717Z,99560.55
2022-11-09T05:33:51.269Z,99558.19
2022-11-09T05:36:52.963Z,99560.97
2022-11-09T05:39:54.538Z,99558.27
2022-11-09T05:42:56.781Z,99558.98
2022-11-09T05:46:02.442Z,99568.59
2022-11-09T05:49:07.156Z,99571.91
2022-11-09T05:52:08.800Z,99569.24
2022-11-09T05:55:10.652Z,99567.23
2022-11-09T05:58:12.354Z,99565.15
2022-11-09T06:01:16.986Z,99566.23
2022-11-09T06:04:18.713Z,99569.70
2022-11-09T06:07:20.396Z,99567.11
2022-11-09T06:10:22.279Z,99565.37
2022-11-09T06:13:23.958Z,99566.17
2022-11-09T06:16:25.742Z,99560.46
2022-11-09T06:19:27.288Z,99561.60
2022-11-09T06:22:29.193Z,99568.52
2022-11-09T06:25:31.970Z,99569.21
2022-11-09T06:28:34.122Z,99570.08
2022-11-09T06:31:35.913Z,99571.95
2022-11-09T06:34:37.557Z,99581.71
2022-11-09T06:37:39.212Z,99578.30
2022-11-09T06:40:40.845Z,99579.21
2022-11-09T06:43:42.429Z,99578.31
2022-11-09T06:46:44.117Z,99572.44
2022-11-09T06:49:45.765Z,99583.23
2022-11-09T06:52:47.430Z,99580.48
2022-11-09T06:55:50.883Z,99583.30
2022-11-09T06:58:52.850Z,99580.42
2022-11-09T07:01:57.622Z,99581.58
2022-11-09T07:05:03.137Z,99584.66
2022-11-09T07:08:04.935Z,99575.27
2022-11-09T07:11:16.285Z,99576.66
2022-11-09T07:14:18.072Z,99573.93
2022-11-09T07:17:19.572Z,99573.01
2022-11-09T07:20:21.569Z,99573.61
2022-11-09T07:23:23.614Z,99575.47
2022-11-09T07:26:25.529Z,99574.67
2022-11-09T07:29:27.139Z,99575.14
2022-11-09T07:33:01.847Z,99570.13
2022-11-09T07:35:50.613Z,99571.48
2022-11-09T07:38:52.298Z,99573.84
2022-11-09T07:41:55.522Z,99572.71
2022-11-09T07:44:57.387Z,99572.55
2022-11-09T07:48:01.352Z,99568.38
2022-11-09T07:51:03.191Z,99566.73
2022-11-09T07:54:04.825Z,99565.42
2022-11-09T07:57:07.250Z,99571.56
2022-11-09T08:00:10.360Z,99563.41
2022-11-09T08:03:12.130Z,99563.35
2022-11-09T08:06:18.238Z,99559.92
2022-11-09T08:09:20.875Z,99553.66
2022-11-09T08:12:22.538Z,99550.16
2022-11-09T08:15:24.563Z,99550.85
2022-11-09T08:18:26.207Z,99549.98
2022-11-09T08:21:27.851Z,99548.79
2022-11-09T08:24:30.036Z,99552.21
2022-11-09T08:27:31.783Z,99547.81
2022-11-09T08:30:35.338Z,99545.74
2022-11-09T08:33:40.377Z,99546.53
2022-11-09T08:36:42.313Z,99540.42
2022-11-09T08:39:43.958Z,99537.06
2022-11-09T08:42:46.027Z,99537.46
2022-11-09T08:45:48.264Z,99538.66
2022-11-09T08:48:49.890Z,99533.86
2022-11-09T08:51:51.765Z,99536.29
2022-11-09T08:54:53.380Z,99533.84
2022-11-09T08:57:56.962Z,99532.09
2022-11-09T09:00:58.839Z,99532.30
2022-11-09T09:04:00.490Z,99528.80
2022-11-09T09:07:02.284Z,99524.14
2022-11-09T09:10:05.089Z,99522.84
2022-11-09T09:13:06.785Z,99524.45
2022-11-09T09:16:13.280Z,99524.34
2022-11-09T09:19:14.956Z,99521.36
2022-11-09T09:22:16.655Z,99520.00
2022-11-09T09:25:18.410Z,99517.71
2022-11-09T09:28:20.248Z,99518.71
2022-11-09T09:31:22.221Z,99516.45
2022-11-09T09:34:24.094Z,99512.64
2022-11-09T09:37:25.976Z,99508.92
2022-11-09T09:40:35.310Z,99510.45
2022-11-09T09:43:46.664Z,99504.73
2022-11-09T09:47:10.310Z,99493.85
2022-11-09T09:50:16.126Z,99493.13
2022-11-09T09:53:44.046Z,99489.45
2022-11-09T09:56:47.459Z,99487.84
2022-11-09T09:59:55.211Z,99481.99
2022-11-09T10:02:56.874Z,99476.50
2022-11-09T10:06:08.464Z,99475.40
2022-11-09T10:09:39.457Z,99469.09
2022-11-09T10:13:05.505Z,99463.54
2022-11-09T10:16:26.203Z,99458.42
2022-11-09T10:19:30.525Z,99459.62
2022-11-09T10:22:59.702Z,99457.14
2022-11-09T10:26:15.487Z,99456.34
2022-11-09T10:29:43.463Z,99453.69
2022-11-09T10:32:49.120Z,99450.89
2022-11-09T10:36:24.006Z,99455.25
2022-11-09T10:39:38.462Z,99453.48
2022-11-09T10:42:45.247Z,99456.05
2022-11-09T10:45:58.779Z,99452.04
2022-11-09T10:49:19.530Z,99453.36
2022-11-09T10:52:44.250Z,99453.59
2022-11-09T10:56:08.982Z,99454.06
2022-11-09T10:59:43.558Z,99452.19
2022-11-09T11:02:46.711Z,99449.02
2022-11-09T11:05:58.354Z,99446.39
2022-11-09T11:09:05.911Z,99445.21
2022-11-09T11:12:25.760Z,99449.54
2022-11-09T11:15:39.734Z,99449.44
2022-11-09T11:18:46.699Z,99450.84
2022-11-09T11:22:09.260Z,99450.42
2022-11-09T11:25:22.500Z,99453.19
2022-11-09T11:28:42.864Z,99449.66
2022-11-09T11:31:45.036Z,99448.47
2022-11-09T11:35:00.288Z,99448.85
2022-11-09T11:38:16.632Z,99447.08
2022-11-09T11:41:54.162Z,99447.89
2022-11-09T11:45:40.475Z,99447.60
2022-11-09T11:48:43.380Z,99445.91
2022-11-09T11:52:09.881Z,99444.23
2022-11-09T11:55:29.883Z,99447.65
2022-11-09T11:59:01.053Z,99448.41
2022-11-09T12:02:21.220Z,99445.73
2022-11-09T12:05:42.666Z,99443.98
2022-11-09T12:09:02.741Z,99440.61
2022-11-09T12:12:16.930Z,99439.45
2022-11-09T12:15:38.140Z,99441.96
2022-11-09T12:18:50.102Z,99439.35
2022-11-09T12:21:58.205Z,99435.70
2022-11-09T12:25:19.846Z,99434.48
2022-11-09T12:28:39.854Z,99424.70
2022-11-09T12:32:03.233Z,99427.36
2022-11-09T12:35:22.422Z,99427.00
2022-11-09T12:38:29.334Z,99425.50
2022-11-09T12:41:35.299Z,99424.13
2022-11-09T12:45:09.598Z,99421.25
2022-11-09T12:48:30.582Z,99418.79
2022-11-09T12:51:33.941Z,99422.86
2022-11-09T12:54:37.047Z,99428.15
2022-11-09T12:57:38.760Z,99430.13
2022-11-09T13:00:44.402Z,99429.55
2022-11-09T13:03:55.278Z,99430.66
2022-11-09T13:07:09.073Z,99430.17
2022-11-09T13:10:36.661Z,99433.63
2022-11-09T13:13:38.442Z,99438.09
2022-11-09T13:16:40.056Z,99437.27
2022-11-09T13:19:42.098Z,99438.55
2022-11-09T13:22:43.752Z,99442.63
2022-11-09T13:25:51.004Z,99444.79
2022-11-09T13:29:18.992Z,99442.33
2022-11-09T13:32:20.702Z,99444.30
2022-11-09T13:35:52.193Z,99445.25
2022-11-09T13:39:39.267Z,99451.31
2022-11-09T13:42:41.054Z,99451.85
2022-11-09T13:45:56.142Z,99452.33
2022-11-09T13:48:57.852Z,99452.52
2022-11-09T13:51:59.681Z,99447.73
2022-11-09T13:55:01.368Z,99455.40
2022-11-09T13:58:23.805Z,99462.59
2022-11-09T14:01:34.251Z,99459.39
2022-11-09T14:04:43.768Z,99461.33
2022-11-09T14:07:45.545Z,99462.36
2022-11-09T14:11:00.336Z,99457.02
2022-11-09T14:14:05.021Z,99451.52
2022-11-09T14:17:18.989Z,99451.56
2022-11-09T14:20:37.162Z,99446.32
2022-11-09T14:23:39.078Z,99444.63
2022-11-09T14:26:40.681Z,99442.52
2022-11-09T14:29:49.993Z,99438.36
2022-11-09T14:32:56.784Z,99446.11
2022-11-09T14:36:00.179Z,99440.38
2022-11-09T14:39:05.050Z,99441.95
2022-11-09T14:42:07.396Z,99438.94
2022-11-09T14:45:15.132Z,99439.09
2022-11-09T14:48:19.287Z,99442.48
2022-11-09T14:51:21.857Z,99441.74
2022-11-09T14:54:25.627Z,99445.06
2022-11-09T14:57:27.389Z,99442.42
2022-11-09T15:00:34.792Z,99435.14
2022-11-09T15:03:36.546Z,99431.77
2022-11-09T15:06:53.501Z,99434.06
2022-11-09T15:10:09.003Z,99430.67
2022-11-09T15:13:10.898Z,99436.77
2022-11-09T15:16:24.424Z,99437.98
2022-11-09T15:19:31.739Z,99448.58
2022-11-09T15:22:48.865Z,99452.88
2022-11-09T15:25:51.723Z,99457.66
2022-11-09T15:28:53.476Z,99460.58
2022-11-09T15:32:00.625Z,99463.62
2022-11-09T15:35:02.300Z,99464.68
2022-11-09T15:38:04.183Z,99458.94
2022-11-09T15:41:14.821Z,99455.30
2022-11-09T15:44:17.353Z,99457.40
2022-11-09T15:47:27.814Z,99455.80
2022-11-09T15:50:29.443Z,99456.63
2022-11-09T15:53:32.892Z,99454.22
2022-11-09T15:56:34.787Z,99451.29
2022-11-09T15:59:36.415Z,99450.70
2022-11-09T16:02:38.124Z,99446.27
2022-11-09T16:05:39.841Z,99447.58
2022-11-09T16:08:41.532Z,99447.73
2022-11-09T16:11:43.168Z,99446.45
2022-11-09T16:14:44.925Z,99445.98
2022-11-09T16:17:49.682Z,99447.32
2022-11-09T16:20:51.265Z,99453.91
2022-11-09T16:23:58.285Z,99455.79
2022-11-09T16:27:00.793Z,99456.75
2022-11-09T16:30:03.195Z,99453.89
2022-11-09T16:33:04.834Z,99459.05
2022-11-09T16:36:10.524Z,99457.23
2022-11-09T16:39:18.501Z,99458.13
2022-11-09T16:42:20.420Z,99455.91
2022-11-09T16:45:22.148Z,99457.16
2022-11-09T16:48:24.263Z,99459.73
2022-11-09T16:51:26.034Z,99465.00
2022-11-09T16:54:27.599Z,99468.39
2022-11-09T16:57:29.283Z,99463.20
2022-11-09T17:00:55.736Z,99460.89
2022-11-09T17:03:52.406Z,99461.00
2022-11-09T17:06:54.022Z,99466.27
2022-11-09T17:09:55.720Z,99465.63
2022-11-09T17:12:57.404Z,99466.86
2022-11-09T17:16:04.390Z,99472.85
2022-11-09T17:19:06.378Z,99474.34
2022-11-09T17:22:08.066Z,99482.89
2022-11-09T17:25:10.111Z,99485.45
2022-11-09T17:28:11.704Z,99492.20
2022-11-09T17:31:14.609Z,99489.91
2022-11-09T17:34:16.282Z,99489.84
2022-11-09T17:37:17.942Z,99492.45
2022-11-09T17:40:21.486Z,99489.45
2022-11-09T17:43:23.079Z,99487.64
2022-11-09T17:46:24.949Z,99483.86
2022-11-09T17:49:26.884Z,99484.08
2022-11-09T17:52:28.796Z,99486.11
2022-11-09T17:55:30.559Z,99484.41
2022-11-09T17:58:32.264Z,99487.35
2022-11-09T18:01:39.394Z,99484.66
2022-11-09T18:04:42.364Z,99489.13
2022-11-09T18:07:43.978Z,99491.58
2022-11-09T18:10:45.752Z,99493.36
2022-11-09T18:13:47.389Z,99493.48
2022-11-09T18:16:49.035Z,99492.09
2022-11-09T18:19:50.789Z,99495.36
2022-11-09T18:22:53.781Z,99498.54
2022-11-09T18:25:59.003Z,99504.94
2022-11-09T18:29:00.667Z,99506.68
2022-11-09T18:32:02.316Z,99513.84
2022-11-09T18:35:04.330Z,99515.96
2022-11-09T18:38:10.029Z,99518.77
2022-11-09T18:41:20.515Z,99521.55
2022-11-09T18:44:22.142Z,99522.34
2022-11-09T18:47:25.512Z,99522.00
2022-11-09T18:50:27.145Z,99519.58
2022-11-09T18:53:34.524Z,99519.89
2022-11-09T18:56:36.245Z,99525.77
2022-11-09T18:59:40.880Z,99517.91
2022-11-09T19:02:42.515Z,99520.81
2022-11-09T19:05:44.358Z,99521.14
2022-11-09T19:09:05.513Z,99520.20
2022-11-09T19:12:08.714Z,99519.90
2022-11-09T19:15:10.536Z,99523.39
2022-11-09T19:18:12.173Z,99522.08
2022-11-09T19:21:46.466Z,99525.45
2022-11-09T19:24:48.428Z,99535.41
2022-11-09T19:27:50.200Z,99534.60
2022-11-09T19:30:51.804Z,99527.49
2022-11-09T19:33:53.546Z,99530.90
2022-11-09T19:36:55.566Z,99524.83
2022-11-09T19:39:57.159Z,99526.52
2022-11-09T19:42:58.972Z,99529.48
2022-11-09T19:46:00.528Z,99529.52
2022-11-09T19:49:03.939Z,99536.11
2022-11-09T19:52:05.583Z,99538.00
2022-11-09T19:55:07.624Z,99537.73
2022-11-09T19:58:09.253Z,99529.79
2022-11-09T20:01:12.267Z,99524.36
2022-11-09T20:04:14.016Z,99522.88
2022-11-09T20:07:15.739Z,99522.41
2022-11-09T20:10:17.686Z,99521.45
2022-11-09T20:13:20.108Z,99520.32
2022-11-09T20:16:21.803Z,99519.02
2022-11-09T20:19:24.711Z,99523.52
2022-11-09T20:22:26.496Z,99521.24
2022-11-09T20:25:28.245Z,99513.95
2022-11-09T20:28:29.840Z,99517.09
2022-11-09T20:31:31.521Z,99517.05
2022-11-09T20:34:33.151Z,99511.55
2022-11-09T20:37:34.835Z,99519.26
2022-11-09T20:40:36.432Z,99522.59
2022-11-09T20:43:38.712Z,99524.89
2022-11-09T20:46:40.418Z,99526.36
2022-11-09T20:49:42.244Z,99525.86
2022-11-09T20:52:43.903Z,99527.42
2022-11-09T20:55:45.489Z,99529.44
2022-11-09T20:58:47.518Z,99530.45
2022-11-09T21:01:49.222Z,99529.89
2022-11-09T21:04:50.870Z,99533.02
2022-11-09T21:07:52.621Z,99535.08
2022-11-09T21:10:54.273Z,99534.48
2022-11-09T21:13:56.462Z,99531.52
2022-11-09T21:16:58.155Z,99539.65
2022-11-09T21:19:59.756Z,99537.07
2022-11-09T21:23:13.629Z,99534.08
2022-11-09T21:26:34.291Z,99540.64
2022-11-09T21:29:50.985Z,99539.73
2022-11-09T21:32:52.830Z,99547.93
2022-11-09T21:35:55.009Z,99549.10
2022-11-09T21:38:56.685Z,99546.58
2022-11-09T21:41:59.137Z,99548.74
2022-11-09T21:45:00.796Z,99550.95
2022-11-09T21:48:02.503Z,99551.55
2022-11-09T21:51:23.095Z,99556.05
2022-11-09T21:54:24.921Z,99560.98
2022-11-09T21:57:26.704Z,99561.30
2022-11-09T22:00:28.292Z,99561.23
2022-11-09T22:03:30.053Z,99568.77
2022-11-09T22:06:31.803Z,99569.71
2022-11-09T22:09:57.774Z,99574.85
2022-11-09T22:13:14.697Z,99577.54
2022-11-09T22:16:17.399Z,99570.70
2022-11-09T22:19:38.072Z,99570.02
2022-11-09T22:22:39.704Z,99570.33
2022-11-09T22:25:46.717Z,99570.00
2022-11-09T22:28:49.745Z,99572.21
2022-11-09T22:31:51.325Z,99574.23
2022-11-09T22:34:52.992Z,99576.67
2022-11-09T22:37:54.712Z,99586.69
2022-11-09T22:40:59.368Z,99591.41
2022-11-09T22:44:01.002Z,99591.23
2022-11-09T22:47:02.661Z,99589.45
2022-11-09T22:50:04.485Z,99594.34
2022-11-09T22:53:06.052Z,99598.92
2022-11-09T22:56:09.869Z,99596.02
2022-11-09T22:59:11.560Z,99598.10
2022-11-09T23:02:13.253Z,99593.65
2022-11-09T23:05:15.078Z,99595.67
2022-11-09T23:08:16.852Z,99593.17
2022-11-09T23:11:22.160Z,99592.98
2022-11-09T23:14:43.697Z,99594.95
2022-11-09T23:18:04.247Z,99600.65
2022-11-09T23:21:06.060Z,99608.61
2022-11-09T23:24:28.083Z,99609.39
2022-11-09T23:27:29.828Z,99606.40
2022-11-09T23:30:31.769Z,99603.95
2022-11-09T23:33:33.750Z,99603.41
2022-11-09T23:36:35.370Z,99605.88
2022-11-09T23:39:37.410Z,99611.77
2022-11-09T23:42:39.120Z,99612.58
2022-11-09T23:45:40.841Z,99609.44
2022-11-09T23:48:42.456Z,99617.10
2022-11-09T23:51:44.182Z,99625.86
2022-11-09T23:54:46.364Z,99623.78
2022-11-09T23:57:47.951Z,99623.32
